sensor_id;sensor_type;location;lat;lon;timestamp;P1;durP1;ratioP1;P2;durP2;ratioP2
10727;SDS011;5415;59.322;18.246;2023-01-28T00:02:06;2.10;;;1.90;;
10727;SDS011;5415;59.322;18.246;2023-01-28T00:04:37;3.07;;;1.90;;
10727;SDS011;5415;59.322;18.246;2023-01-28T00:07:05;2.43;;;1.80;;
10727;SDS011;5415;59.322;18.246;2023-01-28T00:09:32;3.23;;;1.90;;
10727;SDS011;5415;59.322;18.246;2023-01-28T00:12:00;2.67;;;2.10;;
10727;SDS011;5415;59.322;18.246;2023-01-28T00:14:27;2.80;;;2.00;;
10727;SDS011;5415;59.322;18.246;2023-01-28T00:16:58;3.47;;;1.97;;
10727;SDS011;5415;59.322;18.246;2023-01-28T00:19:26;2.43;;;2.00;;
10727;SDS011;5415;59.322;18.246;2023-01-28T00:21:53;2.33;;;1.70;;
10727;SDS011;5415;59.322;18.246;2023-01-28T00:24:20;4.37;;;2.10;;
10727;SDS011;5415;59.322;18.246;2023-01-28T00:26:48;2.53;;;1.80;;
10727;SDS011;5415;59.322;18.246;2023-01-28T00:29:15;3.23;;;2.10;;
10727;SDS011;5415;59.322;18.246;2023-01-28T00:31:43;2.57;;;2.07;;
10727;SDS011;5415;59.322;18.246;2023-01-28T00:34:14;3.10;;;1.90;;
10727;SDS011;5415;59.322;18.246;2023-01-28T00:36:42;2.43;;;2.00;;
10727;SDS011;5415;59.322;18.246;2023-01-28T00:39:10;2.33;;;1.80;;
10727;SDS011;5415;59.322;18.246;2023-01-28T00:41:39;2.07;;;1.80;;
10727;SDS011;5415;59.322;18.246;2023-01-28T00:44:07;2.23;;;1.80;;
10727;SDS011;5415;59.322;18.246;2023-01-28T00:46:35;3.00;;;2.30;;
10727;SDS011;5415;59.322;18.246;2023-01-28T00:49:06;3.33;;;1.90;;
10727;SDS011;5415;59.322;18.246;2023-01-28T00:51:35;4.43;;;2.00;;
10727;SDS011;5415;59.322;18.246;2023-01-28T00:54:02;2.83;;;1.73;;
10727;SDS011;5415;59.322;18.246;2023-01-28T00:56:30;2.67;;;1.50;;
10727;SDS011;5415;59.322;18.246;2023-01-28T00:58:58;2.13;;;1.60;;
10727;SDS011;5415;59.322;18.246;2023-01-28T01:01:25;2.40;;;1.63;;
10727;SDS011;5415;59.322;18.246;2023-01-28T01:03:53;3.57;;;1.80;;
10727;SDS011;5415;59.322;18.246;2023-01-28T01:06:28;1.70;;;1.60;;
10727;SDS011;5415;59.322;18.246;2023-01-28T01:08:58;4.10;;;1.60;;
10727;SDS011;5415;59.322;18.246;2023-01-28T01:11:27;3.60;;;1.90;;
10727;SDS011;5415;59.322;18.246;2023-01-28T01:13:55;3.37;;;2.10;;
10727;SDS011;5415;59.322;18.246;2023-01-28T01:16:24;3.27;;;1.83;;
10727;SDS011;5415;59.322;18.246;2023-01-28T01:18:52;1.97;;;1.77;;
10727;SDS011;5415;59.322;18.246;2023-01-28T01:21:25;2.30;;;1.77;;
10727;SDS011;5415;59.322;18.246;2023-01-28T01:23:55;2.63;;;2.10;;
10727;SDS011;5415;59.322;18.246;2023-01-28T01:26:24;2.00;;;1.67;;
10727;SDS011;5415;59.322;18.246;2023-01-28T01:28:56;3.70;;;1.60;;
10727;SDS011;5415;59.322;18.246;2023-01-28T01:31:23;2.73;;;1.80;;
10727;SDS011;5415;59.322;18.246;2023-01-28T01:33:51;2.13;;;1.80;;
10727;SDS011;5415;59.322;18.246;2023-01-28T01:36:18;3.50;;;1.60;;
10727;SDS011;5415;59.322;18.246;2023-01-28T01:38:51;3.37;;;1.60;;
10727;SDS011;5415;59.322;18.246;2023-01-28T01:41:24;4.00;;;1.70;;
10727;SDS011;5415;59.322;18.246;2023-01-28T01:43:54;1.97;;;1.37;;
10727;SDS011;5415;59.322;18.246;2023-01-28T01:46:28;3.13;;;1.60;;
10727;SDS011;5415;59.322;18.246;2023-01-28T01:49:11;1.57;;;1.27;;
10727;SDS011;5415;59.322;18.246;2023-01-28T01:51:43;2.30;;;1.40;;
10727;SDS011;5415;59.322;18.246;2023-01-28T01:54:14;2.03;;;1.60;;
10727;SDS011;5415;59.322;18.246;2023-01-28T01:56:44;2.33;;;1.40;;
10727;SDS011;5415;59.322;18.246;2023-01-28T01:59:16;1.43;;;1.23;;
10727;SDS011;5415;59.322;18.246;2023-01-28T02:01:48;1.60;;;1.50;;
10727;SDS011;5415;59.322;18.246;2023-01-28T02:04:17;2.87;;;1.60;;
10727;SDS011;5415;59.322;18.246;2023-01-28T02:06:48;2.77;;;1.50;;
10727;SDS011;5415;59.322;18.246;2023-01-28T02:09:23;2.63;;;1.30;;
10727;SDS011;5415;59.322;18.246;2023-01-28T02:11:55;2.40;;;1.50;;
10727;SDS011;5415;59.322;18.246;2023-01-28T02:14:27;2.20;;;1.47;;
10727;SDS011;5415;59.322;18.246;2023-01-28T02:16:56;1.87;;;1.43;;
10727;SDS011;5415;59.322;18.246;2023-01-28T02:19:24;1.33;;;1.23;;
10727;SDS011;5415;59.322;18.246;2023-01-28T02:22:02;1.20;;;1.10;;
10727;SDS011;5415;59.322;18.246;2023-01-28T02:30:40;2.33;;;1.30;;
10727;SDS011;5415;59.322;18.246;2023-01-28T02:33:28;1.90;;;1.30;;
10727;SDS011;5415;59.322;18.246;2023-01-28T02:36:02;1.83;;;1.20;;
10727;SDS011;5415;59.322;18.246;2023-01-28T02:38:40;1.40;;;1.20;;
10727;SDS011;5415;59.322;18.246;2023-01-28T02:41:13;1.03;;;0.90;;
10727;SDS011;5415;59.322;18.246;2023-01-28T02:43:47;3.33;;;1.43;;
10727;SDS011;5415;59.322;18.246;2023-01-28T02:46:17;1.60;;;1.20;;
10727;SDS011;5415;59.322;18.246;2023-01-28T02:49:17;1.43;;;1.07;;
10727;SDS011;5415;59.322;18.246;2023-01-28T02:54:41;1.67;;;1.00;;
10727;SDS011;5415;59.322;18.246;2023-01-28T02:57:18;2.03;;;1.17;;
10727;SDS011;5415;59.322;18.246;2023-01-28T03:00:00;1.60;;;1.17;;
10727;SDS011;5415;59.322;18.246;2023-01-28T03:02:33;1.27;;;0.93;;
10727;SDS011;5415;59.322;18.246;2023-01-28T03:05:08;1.03;;;1.03;;
10727;SDS011;5415;59.322;18.246;2023-01-28T03:07:42;1.20;;;1.10;;
10727;SDS011;5415;59.322;18.246;2023-01-28T03:10:11;2.43;;;1.27;;
10727;SDS011;5415;59.322;18.246;2023-01-28T03:12:41;1.43;;;0.90;;
10727;SDS011;5415;59.322;18.246;2023-01-28T03:15:30;1.20;;;1.10;;
10727;SDS011;5415;59.322;18.246;2023-01-28T03:18:19;2.73;;;1.20;;
10727;SDS011;5415;59.322;18.246;2023-01-28T03:21:08;1.00;;;0.90;;
10727;SDS011;5415;59.322;18.246;2023-01-28T03:23:57;2.30;;;1.20;;
10727;SDS011;5415;59.322;18.246;2023-01-28T03:26:46;2.33;;;1.20;;
10727;SDS011;5415;59.322;18.246;2023-01-28T03:29:39;2.43;;;1.43;;
10727;SDS011;5415;59.322;18.246;2023-01-28T03:32:28;2.53;;;1.10;;
10727;SDS011;5415;59.322;18.246;2023-01-28T03:35:13;2.30;;;1.00;;
10727;SDS011;5415;59.322;18.246;2023-01-28T03:38:01;0.90;;;0.90;;
10727;SDS011;5415;59.322;18.246;2023-01-28T03:40:47;2.13;;;0.97;;
10727;SDS011;5415;59.322;18.246;2023-01-28T03:43:15;1.60;;;1.00;;
10727;SDS011;5415;59.322;18.246;2023-01-28T03:45:43;1.20;;;0.90;;
10727;SDS011;5415;59.322;18.246;2023-01-28T03:48:17;1.53;;;0.90;;
10727;SDS011;5415;59.322;18.246;2023-01-28T03:50:44;3.17;;;1.00;;
10727;SDS011;5415;59.322;18.246;2023-01-28T03:53:12;1.40;;;0.90;;
10727;SDS011;5415;59.322;18.246;2023-01-28T03:55:43;0.97;;;0.83;;
10727;SDS011;5415;59.322;18.246;2023-01-28T03:58:11;2.30;;;0.90;;
10727;SDS011;5415;59.322;18.246;2023-01-28T04:00:40;1.13;;;1.00;;
10727;SDS011;5415;59.322;18.246;2023-01-28T04:03:08;2.50;;;0.80;;
10727;SDS011;5415;59.322;18.246;2023-01-28T04:05:42;1.10;;;0.77;;
10727;SDS011;5415;59.322;18.246;2023-01-28T04:08:11;0.90;;;0.80;;
10727;SDS011;5415;59.322;18.246;2023-01-28T04:10:38;1.00;;;0.87;;
10727;SDS011;5415;59.322;18.246;2023-01-28T04:13:08;1.53;;;0.80;;
10727;SDS011;5415;59.322;18.246;2023-01-28T04:15:35;1.50;;;1.03;;
10727;SDS011;5415;59.322;18.246;2023-01-28T04:18:03;1.00;;;0.90;;
10727;SDS011;5415;59.322;18.246;2023-01-28T04:20:30;1.23;;;0.83;;
10727;SDS011;5415;59.322;18.246;2023-01-28T04:23:00;1.43;;;0.70;;
10727;SDS011;5415;59.322;18.246;2023-01-28T04:25:27;4.27;;;1.17;;
10727;SDS011;5415;59.322;18.246;2023-01-28T04:27:55;0.80;;;0.80;;
10727;SDS011;5415;59.322;18.246;2023-01-28T04:30:23;0.90;;;0.90;;
10727;SDS011;5415;59.322;18.246;2023-01-28T04:32:51;2.10;;;1.00;;
10727;SDS011;5415;59.322;18.246;2023-01-28T04:35:19;2.30;;;1.00;;
10727;SDS011;5415;59.322;18.246;2023-01-28T04:37:46;1.13;;;1.03;;
10727;SDS011;5415;59.322;18.246;2023-01-28T04:40:17;1.90;;;1.00;;
10727;SDS011;5415;59.322;18.246;2023-01-28T04:42:51;1.60;;;0.90;;
10727;SDS011;5415;59.322;18.246;2023-01-28T04:45:20;2.20;;;0.87;;
10727;SDS011;5415;59.322;18.246;2023-01-28T04:47:47;1.40;;;1.10;;
10727;SDS011;5415;59.322;18.246;2023-01-28T04:50:16;1.20;;;0.73;;
10727;SDS011;5415;59.322;18.246;2023-01-28T04:52:44;1.90;;;0.90;;
10727;SDS011;5415;59.322;18.246;2023-01-28T04:55:12;1.40;;;1.00;;
10727;SDS011;5415;59.322;18.246;2023-01-28T04:57:41;2.03;;;0.90;;
10727;SDS011;5415;59.322;18.246;2023-01-28T05:00:09;0.93;;;0.93;;
10727;SDS011;5415;59.322;18.246;2023-01-28T05:02:37;1.83;;;0.80;;
10727;SDS011;5415;59.322;18.246;2023-01-28T05:05:05;0.83;;;0.80;;
10727;SDS011;5415;59.322;18.246;2023-01-28T05:07:33;0.90;;;0.90;;
10727;SDS011;5415;59.322;18.246;2023-01-28T05:10:01;1.43;;;0.90;;
10727;SDS011;5415;59.322;18.246;2023-01-28T05:12:31;0.80;;;0.80;;
10727;SDS011;5415;59.322;18.246;2023-01-28T05:14:59;2.77;;;0.90;;
10727;SDS011;5415;59.322;18.246;2023-01-28T05:17:28;1.53;;;1.00;;
10727;SDS011;5415;59.322;18.246;2023-01-28T05:19:55;2.60;;;1.10;;
10727;SDS011;5415;59.322;18.246;2023-01-28T05:22:23;1.40;;;1.00;;
10727;SDS011;5415;59.322;18.246;2023-01-28T05:24:50;1.90;;;0.80;;
10727;SDS011;5415;59.322;18.246;2023-01-28T05:27:18;2.57;;;0.80;;
10727;SDS011;5415;59.322;18.246;2023-01-28T05:29:46;1.80;;;0.80;;
10727;SDS011;5415;59.322;18.246;2023-01-28T05:32:15;1.13;;;0.87;;
10727;SDS011;5415;59.322;18.246;2023-01-28T05:34:43;2.03;;;0.80;;
10727;SDS011;5415;59.322;18.246;2023-01-28T05:37:11;3.00;;;1.00;;
10727;SDS011;5415;59.322;18.246;2023-01-28T05:39:38;1.20;;;0.90;;
10727;SDS011;5415;59.322;18.246;2023-01-28T05:42:05;0.87;;;0.83;;
10727;SDS011;5415;59.322;18.246;2023-01-28T05:44:33;4.03;;;0.97;;
10727;SDS011;5415;59.322;18.246;2023-01-28T05:47:02;2.57;;;1.00;;
10727;SDS011;5415;59.322;18.246;2023-01-28T05:49:31;2.33;;;0.90;;
10727;SDS011;5415;59.322;18.246;2023-01-28T05:51:58;0.80;;;0.80;;
10727;SDS011;5415;59.322;18.246;2023-01-28T05:54:26;2.00;;;0.70;;
10727;SDS011;5415;59.322;18.246;2023-01-28T05:56:54;3.83;;;0.80;;
10727;SDS011;5415;59.322;18.246;2023-01-28T05:59:22;1.90;;;0.70;;
10727;SDS011;5415;59.322;18.246;2023-01-28T06:01:53;1.13;;;0.80;;
10727;SDS011;5415;59.322;18.246;2023-01-28T06:04:21;1.57;;;0.80;;
10727;SDS011;5415;59.322;18.246;2023-01-28T06:06:50;2.67;;;1.30;;
10727;SDS011;5415;59.322;18.246;2023-01-28T06:09:18;2.30;;;0.83;;
10727;SDS011;5415;59.322;18.246;2023-01-28T06:11:45;2.63;;;1.00;;
10727;SDS011;5415;59.322;18.246;2023-01-28T06:14:15;1.90;;;1.00;;
10727;SDS011;5415;59.322;18.246;2023-01-28T06:16:42;2.80;;;1.07;;
10727;SDS011;5415;59.322;18.246;2023-01-28T06:19:10;1.63;;;0.90;;
10727;SDS011;5415;59.322;18.246;2023-01-28T06:21:38;1.23;;;0.80;;
10727;SDS011;5415;59.322;18.246;2023-01-28T06:24:09;1.83;;;1.07;;
10727;SDS011;5415;59.322;18.246;2023-01-28T06:26:37;2.70;;;1.13;;
10727;SDS011;5415;59.322;18.246;2023-01-28T06:29:05;3.07;;;1.10;;
10727;SDS011;5415;59.322;18.246;2023-01-28T06:31:32;2.20;;;0.80;;
10727;SDS011;5415;59.322;18.246;2023-01-28T06:34:01;2.23;;;0.90;;
10727;SDS011;5415;59.322;18.246;2023-01-28T06:36:28;1.33;;;0.80;;
10727;SDS011;5415;59.322;18.246;2023-01-28T06:38:56;3.27;;;0.70;;
10727;SDS011;5415;59.322;18.246;2023-01-28T06:41:25;3.20;;;1.00;;
10727;SDS011;5415;59.322;18.246;2023-01-28T06:43:52;2.67;;;1.20;;
10727;SDS011;5415;59.322;18.246;2023-01-28T06:46:20;2.97;;;1.43;;
10727;SDS011;5415;59.322;18.246;2023-01-28T06:48:49;4.53;;;1.00;;
10727;SDS011;5415;59.322;18.246;2023-01-28T06:51:17;3.53;;;0.87;;
10727;SDS011;5415;59.322;18.246;2023-01-28T06:53:44;3.77;;;1.50;;
10727;SDS011;5415;59.322;18.246;2023-01-28T06:56:12;2.63;;;1.10;;
10727;SDS011;5415;59.322;18.246;2023-01-28T06:58:41;1.80;;;1.10;;
10727;SDS011;5415;59.322;18.246;2023-01-28T07:01:09;2.70;;;1.23;;
10727;SDS011;5415;59.322;18.246;2023-01-28T07:03:36;3.13;;;1.17;;
10727;SDS011;5415;59.322;18.246;2023-01-28T07:06:04;3.60;;;1.37;;
10727;SDS011;5415;59.322;18.246;2023-01-28T07:08:31;2.07;;;1.10;;
10727;SDS011;5415;59.322;18.246;2023-01-28T07:10:59;1.60;;;1.20;;
10727;SDS011;5415;59.322;18.246;2023-01-28T07:13:26;4.20;;;1.20;;
10727;SDS011;5415;59.322;18.246;2023-01-28T07:15:55;3.00;;;1.17;;
10727;SDS011;5415;59.322;18.246;2023-01-28T07:18:22;4.87;;;1.33;;
10727;SDS011;5415;59.322;18.246;2023-01-28T07:20:50;2.33;;;1.20;;
10727;SDS011;5415;59.322;18.246;2023-01-28T07:23:18;4.27;;;1.40;;
10727;SDS011;5415;59.322;18.246;2023-01-28T07:25:47;1.93;;;1.30;;
10727;SDS011;5415;59.322;18.246;2023-01-28T07:28:15;3.80;;;1.50;;
10727;SDS011;5415;59.322;18.246;2023-01-28T07:30:46;2.87;;;1.50;;
10727;SDS011;5415;59.322;18.246;2023-01-28T07:33:17;3.03;;;1.23;;
10727;SDS011;5415;59.322;18.246;2023-01-28T07:35:45;7.40;;;1.23;;
10727;SDS011;5415;59.322;18.246;2023-01-28T07:38:13;4.63;;;1.50;;
10727;SDS011;5415;59.322;18.246;2023-01-28T07:40:40;4.20;;;1.60;;
10727;SDS011;5415;59.322;18.246;2023-01-28T07:43:09;4.80;;;1.60;;
10727;SDS011;5415;59.322;18.246;2023-01-28T07:45:37;5.33;;;1.50;;
10727;SDS011;5415;59.322;18.246;2023-01-28T07:48:06;4.10;;;1.30;;
10727;SDS011;5415;59.322;18.246;2023-01-28T07:50:38;4.00;;;1.77;;
10727;SDS011;5415;59.322;18.246;2023-01-28T07:53:06;5.87;;;1.77;;
10727;SDS011;5415;59.322;18.246;2023-01-28T07:55:35;3.17;;;1.50;;
10727;SDS011;5415;59.322;18.246;2023-01-28T07:58:04;5.53;;;1.50;;
10727;SDS011;5415;59.322;18.246;2023-01-28T08:00:33;4.30;;;1.77;;
10727;SDS011;5415;59.322;18.246;2023-01-28T08:03:04;3.97;;;1.50;;
10727;SDS011;5415;59.322;18.246;2023-01-28T08:05:36;3.33;;;1.50;;
10727;SDS011;5415;59.322;18.246;2023-01-28T08:08:08;3.57;;;1.60;;
10727;SDS011;5415;59.322;18.246;2023-01-28T08:10:36;6.07;;;1.80;;
10727;SDS011;5415;59.322;18.246;2023-01-28T08:13:04;5.50;;;1.60;;
10727;SDS011;5415;59.322;18.246;2023-01-28T08:15:32;3.83;;;1.60;;
10727;SDS011;5415;59.322;18.246;2023-01-28T08:18:00;4.40;;;1.70;;
10727;SDS011;5415;59.322;18.246;2023-01-28T08:20:29;2.30;;;1.67;;
10727;SDS011;5415;59.322;18.246;2023-01-28T08:23:05;7.47;;;2.13;;
10727;SDS011;5415;59.322;18.246;2023-01-28T08:25:36;5.53;;;1.77;;
10727;SDS011;5415;59.322;18.246;2023-01-28T08:28:04;3.47;;;1.73;;
10727;SDS011;5415;59.322;18.246;2023-01-28T08:30:32;2.20;;;1.47;;
10727;SDS011;5415;59.322;18.246;2023-01-28T08:33:02;4.67;;;1.60;;
10727;SDS011;5415;59.322;18.246;2023-01-28T08:35:33;4.10;;;1.87;;
10727;SDS011;5415;59.322;18.246;2023-01-28T08:38:01;3.13;;;1.30;;
10727;SDS011;5415;59.322;18.246;2023-01-28T08:40:32;1.87;;;1.17;;
10727;SDS011;5415;59.322;18.246;2023-01-28T08:43:00;4.30;;;1.70;;
10727;SDS011;5415;59.322;18.246;2023-01-28T08:45:30;9.37;;;2.37;;
10727;SDS011;5415;59.322;18.246;2023-01-28T08:47:58;5.37;;;1.80;;
10727;SDS011;5415;59.322;18.246;2023-01-28T08:50:28;4.47;;;2.10;;
10727;SDS011;5415;59.322;18.246;2023-01-28T08:52:59;7.60;;;2.13;;
10727;SDS011;5415;59.322;18.246;2023-01-28T08:55:28;6.10;;;1.80;;
10727;SDS011;5415;59.322;18.246;2023-01-28T08:58:00;5.67;;;2.30;;
10727;SDS011;5415;59.322;18.246;2023-01-28T09:00:28;7.80;;;2.10;;
10727;SDS011;5415;59.322;18.246;2023-01-28T09:02:55;8.80;;;2.03;;
10727;SDS011;5415;59.322;18.246;2023-01-28T09:05:23;5.93;;;2.00;;
10727;SDS011;5415;59.322;18.246;2023-01-28T09:07:50;9.17;;;2.30;;
10727;SDS011;5415;59.322;18.246;2023-01-28T09:10:17;5.27;;;1.80;;
10727;SDS011;5415;59.322;18.246;2023-01-28T09:12:49;5.23;;;2.10;;
10727;SDS011;5415;59.322;18.246;2023-01-28T09:15:16;5.67;;;1.83;;
10727;SDS011;5415;59.322;18.246;2023-01-28T09:17:43;6.57;;;2.20;;
10727;SDS011;5415;59.322;18.246;2023-01-28T09:20:11;8.23;;;2.20;;
10727;SDS011;5415;59.322;18.246;2023-01-28T09:22:38;6.40;;;2.10;;
10727;SDS011;5415;59.322;18.246;2023-01-28T09:25:05;4.63;;;2.00;;
10727;SDS011;5415;59.322;18.246;2023-01-28T09:27:34;5.63;;;2.07;;
10727;SDS011;5415;59.322;18.246;2023-01-28T09:30:03;7.53;;;2.00;;
10727;SDS011;5415;59.322;18.246;2023-01-28T09:32:31;7.40;;;1.90;;
10727;SDS011;5415;59.322;18.246;2023-01-28T09:34:58;6.40;;;2.17;;
10727;SDS011;5415;59.322;18.246;2023-01-28T09:37:28;6.80;;;2.33;;
10727;SDS011;5415;59.322;18.246;2023-01-28T09:39:56;10.43;;;2.47;;
10727;SDS011;5415;59.322;18.246;2023-01-28T09:45:25;5.33;;;1.83;;
10727;SDS011;5415;59.322;18.246;2023-01-28T09:47:59;8.33;;;2.13;;
10727;SDS011;5415;59.322;18.246;2023-01-28T09:50:30;4.70;;;1.90;;
10727;SDS011;5415;59.322;18.246;2023-01-28T09:53:01;8.50;;;2.37;;
10727;SDS011;5415;59.322;18.246;2023-01-28T09:55:32;5.97;;;2.20;;
10727;SDS011;5415;59.322;18.246;2023-01-28T09:58:03;7.07;;;2.20;;
10727;SDS011;5415;59.322;18.246;2023-01-28T10:00:37;6.10;;;2.00;;
10727;SDS011;5415;59.322;18.246;2023-01-28T10:03:16;6.30;;;2.27;;
10727;SDS011;5415;59.322;18.246;2023-01-28T10:06:12;5.17;;;1.73;;
10727;SDS011;5415;59.322;18.246;2023-01-28T10:08:59;4.97;;;1.63;;
10727;SDS011;5415;59.322;18.246;2023-01-28T10:11:42;7.27;;;2.07;;
10727;SDS011;5415;59.322;18.246;2023-01-28T10:14:19;9.37;;;2.13;;
10727;SDS011;5415;59.322;18.246;2023-01-28T10:16:56;7.07;;;2.00;;
10727;SDS011;5415;59.322;18.246;2023-01-28T10:19:32;5.63;;;1.63;;
10727;SDS011;5415;59.322;18.246;2023-01-28T10:22:05;7.77;;;2.00;;
10727;SDS011;5415;59.322;18.246;2023-01-28T10:24:38;4.40;;;1.63;;
10727;SDS011;5415;59.322;18.246;2023-01-28T10:27:10;5.37;;;2.23;;
10727;SDS011;5415;59.322;18.246;2023-01-28T10:29:40;5.60;;;1.80;;
10727;SDS011;5415;59.322;18.246;2023-01-28T10:32:16;5.93;;;1.83;;
10727;SDS011;5415;59.322;18.246;2023-01-28T10:34:51;4.23;;;1.87;;
10727;SDS011;5415;59.322;18.246;2023-01-28T10:37:19;3.83;;;1.30;;
10727;SDS011;5415;59.322;18.246;2023-01-28T10:39:47;6.53;;;2.20;;
10727;SDS011;5415;59.322;18.246;2023-01-28T10:42:19;7.27;;;1.80;;
10727;SDS011;5415;59.322;18.246;2023-01-28T10:44:54;7.10;;;2.17;;
10727;SDS011;5415;59.322;18.246;2023-01-28T10:47:26;3.83;;;1.73;;
10727;SDS011;5415;59.322;18.246;2023-01-28T10:49:58;7.80;;;2.07;;
10727;SDS011;5415;59.322;18.246;2023-01-28T10:52:26;6.33;;;1.70;;
10727;SDS011;5415;59.322;18.246;2023-01-28T10:55:00;5.30;;;1.80;;
10727;SDS011;5415;59.322;18.246;2023-01-28T10:57:29;7.70;;;1.90;;
10727;SDS011;5415;59.322;18.246;2023-01-28T11:00:08;3.03;;;1.77;;
10727;SDS011;5415;59.322;18.246;2023-01-28T11:02:40;3.53;;;1.60;;
10727;SDS011;5415;59.322;18.246;2023-01-28T11:05:14;7.23;;;2.20;;
10727;SDS011;5415;59.322;18.246;2023-01-28T11:07:46;7.17;;;2.10;;
10727;SDS011;5415;59.322;18.246;2023-01-28T11:10:22;4.20;;;1.60;;
10727;SDS011;5415;59.322;18.246;2023-01-28T11:12:55;5.27;;;1.50;;
10727;SDS011;5415;59.322;18.246;2023-01-28T11:15:23;6.13;;;2.00;;
10727;SDS011;5415;59.322;18.246;2023-01-28T11:17:56;6.57;;;1.73;;
10727;SDS011;5415;59.322;18.246;2023-01-28T11:20:27;8.00;;;1.90;;
10727;SDS011;5415;59.322;18.246;2023-01-28T11:23:01;2.37;;;1.60;;
10727;SDS011;5415;59.322;18.246;2023-01-28T11:25:32;6.33;;;2.17;;
10727;SDS011;5415;59.322;18.246;2023-01-28T11:28:02;7.87;;;2.23;;
10727;SDS011;5415;59.322;18.246;2023-01-28T11:30:34;4.77;;;1.73;;
10727;SDS011;5415;59.322;18.246;2023-01-28T11:33:07;2.90;;;1.33;;
10727;SDS011;5415;59.322;18.246;2023-01-28T11:35:50;5.90;;;1.80;;
10727;SDS011;5415;59.322;18.246;2023-01-28T11:38:19;6.20;;;1.90;;
10727;SDS011;5415;59.322;18.246;2023-01-28T11:40:48;9.73;;;2.00;;
10727;SDS011;5415;59.322;18.246;2023-01-28T11:43:17;6.10;;;1.70;;
10727;SDS011;5415;59.322;18.246;2023-01-28T11:45:47;4.63;;;2.13;;
10727;SDS011;5415;59.322;18.246;2023-01-28T11:48:26;3.83;;;2.00;;
10727;SDS011;5415;59.322;18.246;2023-01-28T11:51:01;7.43;;;1.83;;
10727;SDS011;5415;59.322;18.246;2023-01-28T11:53:45;4.83;;;1.40;;
10727;SDS011;5415;59.322;18.246;2023-01-28T11:56:39;3.93;;;1.50;;
10727;SDS011;5415;59.322;18.246;2023-01-28T11:59:24;6.60;;;1.73;;
10727;SDS011;5415;59.322;18.246;2023-01-28T12:02:17;6.30;;;2.00;;
10727;SDS011;5415;59.322;18.246;2023-01-28T12:07:52;4.60;;;1.70;;
10727;SDS011;5415;59.322;18.246;2023-01-28T12:10:32;5.10;;;1.70;;
10727;SDS011;5415;59.322;18.246;2023-01-28T12:13:11;8.73;;;2.03;;
10727;SDS011;5415;59.322;18.246;2023-01-28T12:22:05;5.43;;;1.63;;
10727;SDS011;5415;59.322;18.246;2023-01-28T12:24:48;3.80;;;1.60;;
10727;SDS011;5415;59.322;18.246;2023-01-28T12:27:30;7.53;;;2.10;;
10727;SDS011;5415;59.322;18.246;2023-01-28T12:30:06;5.47;;;1.40;;
10727;SDS011;5415;59.322;18.246;2023-01-28T12:32:50;5.77;;;1.60;;
10727;SDS011;5415;59.322;18.246;2023-01-28T12:35:41;6.73;;;2.00;;
10727;SDS011;5415;59.322;18.246;2023-01-28T12:38:21;4.40;;;1.90;;
10727;SDS011;5415;59.322;18.246;2023-01-28T12:41:04;6.67;;;2.20;;
10727;SDS011;5415;59.322;18.246;2023-01-28T12:43:41;4.87;;;1.80;;
10727;SDS011;5415;59.322;18.246;2023-01-28T12:46:41;5.47;;;1.93;;
10727;SDS011;5415;59.322;18.246;2023-01-28T12:49:15;2.17;;;1.43;;
10727;SDS011;5415;59.322;18.246;2023-01-28T12:51:50;5.80;;;1.83;;
10727;SDS011;5415;59.322;18.246;2023-01-28T12:54:34;8.13;;;2.40;;
10727;SDS011;5415;59.322;18.246;2023-01-28T12:57:07;4.47;;;1.87;;
10727;SDS011;5415;59.322;18.246;2023-01-28T12:59:46;5.17;;;1.90;;
10727;SDS011;5415;59.322;18.246;2023-01-28T13:02:20;5.73;;;1.70;;
10727;SDS011;5415;59.322;18.246;2023-01-28T13:04:55;7.23;;;1.80;;
10727;SDS011;5415;59.322;18.246;2023-01-28T13:07:29;4.70;;;1.80;;
10727;SDS011;5415;59.322;18.246;2023-01-28T13:10:09;4.90;;;1.70;;
10727;SDS011;5415;59.322;18.246;2023-01-28T13:12:41;6.20;;;1.73;;
10727;SDS011;5415;59.322;18.246;2023-01-28T13:15:10;4.10;;;1.60;;
10727;SDS011;5415;59.322;18.246;2023-01-28T13:17:52;1.77;;;1.27;;
10727;SDS011;5415;59.322;18.246;2023-01-28T13:20:28;6.20;;;1.80;;
10727;SDS011;5415;59.322;18.246;2023-01-28T13:23:03;2.73;;;1.57;;
10727;SDS011;5415;59.322;18.246;2023-01-28T13:25:48;4.73;;;1.67;;
10727;SDS011;5415;59.322;18.246;2023-01-28T13:28:25;7.63;;;2.30;;
10727;SDS011;5415;59.322;18.246;2023-01-28T13:31:02;4.47;;;2.20;;
10727;SDS011;5415;59.322;18.246;2023-01-28T13:33:31;6.13;;;2.10;;
10727;SDS011;5415;59.322;18.246;2023-01-28T13:36:01;5.33;;;1.87;;
10727;SDS011;5415;59.322;18.246;2023-01-28T13:38:32;3.53;;;1.60;;
10727;SDS011;5415;59.322;18.246;2023-01-28T13:41:04;6.53;;;1.80;;
10727;SDS011;5415;59.322;18.246;2023-01-28T13:43:36;4.77;;;2.00;;
10727;SDS011;5415;59.322;18.246;2023-01-28T13:46:07;2.47;;;1.60;;
10727;SDS011;5415;59.322;18.246;2023-01-28T13:48:41;5.27;;;1.70;;
10727;SDS011;5415;59.322;18.246;2023-01-28T13:51:16;6.00;;;2.00;;
10727;SDS011;5415;59.322;18.246;2023-01-28T13:53:47;4.80;;;1.70;;
10727;SDS011;5415;59.322;18.246;2023-01-28T13:56:24;7.33;;;1.97;;
10727;SDS011;5415;59.322;18.246;2023-01-28T13:59:09;5.23;;;2.03;;
10727;SDS011;5415;59.322;18.246;2023-01-28T14:01:55;4.83;;;2.00;;
10727;SDS011;5415;59.322;18.246;2023-01-28T14:08:00;4.97;;;1.97;;
10727;SDS011;5415;59.322;18.246;2023-01-28T14:11:00;4.40;;;1.87;;
10727;SDS011;5415;59.322;18.246;2023-01-28T14:16:42;5.43;;;1.60;;
10727;SDS011;5415;59.322;18.246;2023-01-28T14:19:24;3.27;;;1.70;;
10727;SDS011;5415;59.322;18.246;2023-01-28T14:21:54;3.43;;;1.60;;
10727;SDS011;5415;59.322;18.246;2023-01-28T14:24:22;4.10;;;1.40;;
10727;SDS011;5415;59.322;18.246;2023-01-28T14:26:53;3.47;;;1.67;;
10727;SDS011;5415;59.322;18.246;2023-01-28T14:29:40;5.33;;;2.00;;
10727;SDS011;5415;59.322;18.246;2023-01-28T14:32:15;5.33;;;1.70;;
10727;SDS011;5415;59.322;18.246;2023-01-28T14:34:44;7.03;;;1.90;;
10727;SDS011;5415;59.322;18.246;2023-01-28T14:37:15;5.33;;;2.07;;
10727;SDS011;5415;59.322;18.246;2023-01-28T14:39:46;5.83;;;1.90;;
10727;SDS011;5415;59.322;18.246;2023-01-28T14:42:18;4.60;;;2.20;;
10727;SDS011;5415;59.322;18.246;2023-01-28T14:44:54;4.33;;;2.10;;
10727;SDS011;5415;59.322;18.246;2023-01-28T14:50:36;4.37;;;1.80;;
10727;SDS011;5415;59.322;18.246;2023-01-28T14:53:23;7.00;;;2.00;;
10727;SDS011;5415;59.322;18.246;2023-01-28T14:55:58;3.30;;;1.67;;
10727;SDS011;5415;59.322;18.246;2023-01-28T14:58:36;5.90;;;2.40;;
10727;SDS011;5415;59.322;18.246;2023-01-28T15:01:18;4.83;;;1.60;;
10727;SDS011;5415;59.322;18.246;2023-01-28T15:03:47;6.60;;;1.60;;
10727;SDS011;5415;59.322;18.246;2023-01-28T15:06:16;5.80;;;1.70;;
10727;SDS011;5415;59.322;18.246;2023-01-28T15:08:45;2.83;;;1.60;;
10727;SDS011;5415;59.322;18.246;2023-01-28T15:11:15;6.10;;;1.97;;
10727;SDS011;5415;59.322;18.246;2023-01-28T15:13:49;5.17;;;1.90;;
10727;SDS011;5415;59.322;18.246;2023-01-28T15:16:23;4.43;;;1.77;;
10727;SDS011;5415;59.322;18.246;2023-01-28T15:18:55;6.23;;;1.77;;
10727;SDS011;5415;59.322;18.246;2023-01-28T15:21:27;6.33;;;2.10;;
10727;SDS011;5415;59.322;18.246;2023-01-28T15:23:56;6.10;;;1.90;;
10727;SDS011;5415;59.322;18.246;2023-01-28T15:26:25;6.27;;;2.10;;
10727;SDS011;5415;59.322;18.246;2023-01-28T15:28:55;6.90;;;2.20;;
10727;SDS011;5415;59.322;18.246;2023-01-28T15:31:25;8.90;;;2.77;;
10727;SDS011;5415;59.322;18.246;2023-01-28T15:33:58;4.90;;;2.37;;
10727;SDS011;5415;59.322;18.246;2023-01-28T15:36:27;5.50;;;2.77;;
10727;SDS011;5415;59.322;18.246;2023-01-28T15:38:55;5.17;;;2.20;;
10727;SDS011;5415;59.322;18.246;2023-01-28T15:41:24;7.10;;;2.33;;
10727;SDS011;5415;59.322;18.246;2023-01-28T15:43:55;5.47;;;2.10;;
10727;SDS011;5415;59.322;18.246;2023-01-28T15:46:24;5.63;;;1.87;;
10727;SDS011;5415;59.322;18.246;2023-01-28T15:48:55;6.33;;;2.17;;